sensor_id;sensor_type;location;lat;lon;timestamp;pressure;altitude;pressure_sealevel;temperature;humidity
49473;BME280;67434;50.956;6.918;2023-04-04T00:02:06;102401.47;;;1.18;61.18
49473;BME280;67434;50.956;6.918;2023-04-04T00:04:52;102404.66;;;1.21;61.35
49473;BME280;67434;50.956;6.918;2023-04-04T00:07:38;102396.97;;;1.18;61.30
49473;BME280;67434;50.956;6.918;2023-04-04T00:10:24;102410.28;;;1.18;60.73
49473;BME280;67434;50.956;6.918;2023-04-04T00:13:09;102403.59;;;1.14;61.07
49473;BME280;67434;50.956;6.918;2023-04-04T00:15:55;102403.88;;;1.11;60.67
49473;BME280;67434;50.956;6.918;2023-04-04T00:18:41;102395.66;;;1.05;60.91
49473;BME280;67434;50.956;6.918;2023-04-04T00:21:27;102406.78;;;1.00;61.37
49473;BME280;67434;50.956;6.918;2023-04-04T00:24:12;102406.63;;;1.02;61.18
49473;BME280;67434;50.956;6.918;2023-04-04T00:26:58;102418.19;;;1.10;61.25
49473;BME280;67434;50.956;6.918;2023-04-04T00:29:44;102412.09;;;1.00;61.56
49473;BME280;67434;50.956;6.918;2023-04-04T00:32:30;102408.38;;;0.93;62.10
49473;BME280;67434;50.956;6.918;2023-04-04T00:35:15;102406.09;;;0.98;62.25
49473;BME280;67434;50.956;6.918;2023-04-04T00:38:01;102401.09;;;0.95;62.76
49473;BME280;67434;50.956;6.918;2023-04-04T00:40:48;102398.03;;;0.90;62.46
49473;BME280;67434;50.956;6.918;2023-04-04T00:43:35;102399.81;;;0.81;63.13
49473;BME280;67434;50.956;6.918;2023-04-04T00:46:21;102396.34;;;0.71;63.47
49473;BME280;67434;50.956;6.918;2023-04-04T00:49:07;102400.38;;;0.57;64.25
49473;BME280;67434;50.956;6.918;2023-04-04T00:51:54;102403.72;;;0.59;64.40
49473;BME280;67434;50.956;6.918;2023-04-04T00:54:41;102407.59;;;0.65;64.69
49473;BME280;67434;50.956;6.918;2023-04-04T00:57:27;102409.88;;;0.60;64.52
49473;BME280;67434;50.956;6.918;2023-04-04T01:00:14;102416.34;;;0.57;64.94
49473;BME280;67434;50.956;6.918;2023-04-04T01:03:00;102409.06;;;0.59;65.20
49473;BME280;67434;50.956;6.918;2023-04-04T01:05:46;102410.13;;;0.67;64.79
49473;BME280;67434;50.956;6.918;2023-04-04T01:08:33;102407.69;;;0.73;64.25
49473;BME280;67434;50.956;6.918;2023-04-04T01:11:20;102415.13;;;0.70;64.64
49473;BME280;67434;50.956;6.918;2023-04-04T01:14:06;102410.59;;;0.80;64.19
49473;BME280;67434;50.956;6.918;2023-04-04T01:16:52;102405.78;;;0.66;64.55
49473;BME280;67434;50.956;6.918;2023-04-04T01:20:11;102412.88;;;0.75;63.62
49473;BME280;67434;50.956;6.918;2023-04-04T01:22:59;102405.47;;;0.69;63.83
49473;BME280;67434;50.956;6.918;2023-04-04T01:25:47;102406.69;;;0.74;63.39
49473;BME280;67434;50.956;6.918;2023-04-04T01:28:33;102404.50;;;0.70;63.66
49473;BME280;67434;50.956;6.918;2023-04-04T01:31:22;102399.47;;;0.67;63.96
49473;BME280;67434;50.956;6.918;2023-04-04T01:34:35;102403.72;;;0.59;63.97
49473;BME280;67434;50.956;6.918;2023-04-04T01:37:47;102402.03;;;0.41;64.27
49473;BME280;67434;50.956;6.918;2023-04-04T01:40:34;102409.19;;;0.40;64.37
49473;BME280;67434;50.956;6.918;2023-04-04T01:43:21;102393.94;;;0.32;64.79
49473;BME280;67434;50.956;6.918;2023-04-04T01:46:07;102399.81;;;0.36;64.34
49473;BME280;67434;50.956;6.918;2023-04-04T01:48:53;102405.13;;;0.36;64.36
49473;BME280;67434;50.956;6.918;2023-04-04T01:51:39;102395.63;;;0.34;64.54
49473;BME280;67434;50.956;6.918;2023-04-04T01:54:25;102403.59;;;0.34;64.99
49473;BME280;67434;50.956;6.918;2023-04-04T01:57:13;102392.56;;;0.28;65.02
49473;BME280;67434;50.956;6.918;2023-04-04T01:59:59;102396.50;;;0.24;65.26
49473;BME280;67434;50.956;6.918;2023-04-04T02:02:45;102389.88;;;0.11;65.74
49473;BME280;67434;50.956;6.918;2023-04-04T02:05:31;102395.50;;;0.08;65.76
49473;BME280;67434;50.956;6.918;2023-04-04T02:08:16;102391.47;;;0.04;65.53
49473;BME280;67434;50.956;6.918;2023-04-04T02:11:02;102398.31;;;-0.04;66.58
49473;BME280;67434;50.956;6.918;2023-04-04T02:13:48;102385.72;;;-0.02;65.54
49473;BME280;67434;50.956;6.918;2023-04-04T02:16:34;102385.31;;;0.03;65.60
49473;BME280;67434;50.956;6.918;2023-04-04T02:19:19;102378.66;;;0.17;65.07
49473;BME280;67434;50.956;6.918;2023-04-04T02:22:05;102381.66;;;0.04;65.38
49473;BME280;67434;50.956;6.918;2023-04-04T02:24:51;102384.94;;;-0.12;66.44
49473;BME280;67434;50.956;6.918;2023-04-04T02:27:38;102385.38;;;-0.16;66.60
49473;BME280;67434;50.956;6.918;2023-04-04T02:30:23;102388.72;;;-0.14;66.14
49473;BME280;67434;50.956;6.918;2023-04-04T02:33:09;102381.19;;;-0.19;65.87
49473;BME280;67434;50.956;6.918;2023-04-04T02:36:00;102383.31;;;-0.22;66.37
49473;BME280;67434;50.956;6.918;2023-04-04T02:38:46;102382.88;;;-0.18;66.42
49473;BME280;67434;50.956;6.918;2023-04-04T02:41:32;102381.88;;;-0.17;66.38
49473;BME280;67434;50.956;6.918;2023-04-04T02:44:17;102376.16;;;-0.22;66.58
49473;BME280;67434;50.956;6.918;2023-04-04T02:47:04;102369.97;;;-0.13;66.05
49473;BME280;67434;50.956;6.918;2023-04-04T02:49:49;102366.31;;;-0.12;65.74
49473;BME280;67434;50.956;6.918;2023-04-04T02:52:35;102364.94;;;-0.16;65.50
49473;BME280;67434;50.956;6.918;2023-04-04T02:55:21;102369.97;;;-0.13;65.66
49473;BME280;67434;50.956;6.918;2023-04-04T02:58:06;102371.25;;;-0.17;65.71
49473;BME280;67434;50.956;6.918;2023-04-04T03:00:53;102362.88;;;-0.22;66.14
49473;BME280;67434;50.956;6.918;2023-04-04T03:03:39;102354.50;;;-0.27;66.73
49473;BME280;67434;50.956;6.918;2023-04-04T03:06:25;102359.53;;;-0.24;66.60
49473;BME280;67434;50.956;6.918;2023-04-04T03:09:11;102354.91;;;-0.22;66.00
49473;BME280;67434;50.956;6.918;2023-04-04T03:11:57;102360.78;;;-0.18;65.64
49473;BME280;67434;50.956;6.918;2023-04-04T03:14:42;102361.34;;;-0.24;65.93
49473;BME280;67434;50.956;6.918;2023-04-04T03:17:28;102360.41;;;-0.33;66.17
49473;BME280;67434;50.956;6.918;2023-04-04T03:20:14;102362.84;;;-0.49;67.10
49473;BME280;67434;50.956;6.918;2023-04-04T03:22:59;102365.78;;;-0.52;67.30
49473;BME280;67434;50.956;6.918;2023-04-04T03:25:45;102370.16;;;-0.61;67.56
49473;BME280;67434;50.956;6.918;2023-04-04T03:28:30;102369.31;;;-0.61;67.75
49473;BME280;67434;50.956;6.918;2023-04-04T03:31:16;102375.63;;;-0.72;68.65
49473;BME280;67434;50.956;6.918;2023-04-04T03:34:02;102372.41;;;-0.66;69.06
49473;BME280;67434;50.956;6.918;2023-04-04T03:36:49;102370.69;;;-0.57;68.47
49473;BME280;67434;50.956;6.918;2023-04-04T03:39:34;102371.56;;;-0.67;68.74
49473;BME280;67434;50.956;6.918;2023-04-04T03:42:20;102370.44;;;-0.64;68.43
49473;BME280;67434;50.956;6.918;2023-04-04T03:45:06;102367.22;;;-0.77;69.15
49473;BME280;67434;50.956;6.918;2023-04-04T03:47:52;102366.09;;;-0.75;68.74
49473;BME280;67434;50.956;6.918;2023-04-04T03:50:38;102366.25;;;-0.76;68.12
49473;BME280;67434;50.956;6.918;2023-04-04T03:53:24;102362.22;;;-0.71;68.25
49473;BME280;67434;50.956;6.918;2023-04-04T03:56:10;102365.94;;;-0.54;67.28
49473;BME280;67434;50.956;6.918;2023-04-04T03:58:56;102366.94;;;-0.65;67.69
49473;BME280;67434;50.956;6.918;2023-04-04T04:01:41;102366.25;;;-0.67;68.26
49473;BME280;67434;50.956;6.918;2023-04-04T04:04:27;102358.97;;;-0.65;67.94
49473;BME280;67434;50.956;6.918;2023-04-04T04:07:13;102360.47;;;-0.52;66.95
49473;BME280;67434;50.956;6.918;2023-04-04T04:09:58;102357.69;;;-0.60;67.61
49473;BME280;67434;50.956;6.918;2023-04-04T04:12:44;102354.53;;;-0.74;68.04
49473;BME280;67434;50.956;6.918;2023-04-04T04:15:29;102358.38;;;-0.58;66.86
49473;BME280;67434;50.956;6.918;2023-04-04T04:18:15;102355.94;;;-0.42;66.33
49473;BME280;67434;50.956;6.918;2023-04-04T04:21:01;102354.22;;;-0.24;65.84
49473;BME280;67434;50.956;6.918;2023-04-04T04:23:48;102349.50;;;-0.40;65.92
49473;BME280;67434;50.956;6.918;2023-04-04T04:26:33;102348.97;;;-0.43;65.91
49473;BME280;67434;50.956;6.918;2023-04-04T04:29:19;102348.81;;;-0.42;66.12
49473;BME280;67434;50.956;6.918;2023-04-04T04:32:05;102338.13;;;-0.59;66.71
49473;BME280;67434;50.956;6.918;2023-04-04T04:34:51;102349.03;;;-0.63;66.47
49473;BME280;67434;50.956;6.918;2023-04-04T04:37:37;102341.91;;;-0.62;66.72
49473;BME280;67434;50.956;6.918;2023-04-04T04:40:22;102346.94;;;-0.59;66.78
49473;BME280;67434;50.956;6.918;2023-04-04T04:43:08;102344.31;;;-0.69;67.48
49473;BME280;67434;50.956;6.918;2023-04-04T04:45:53;102343.00;;;-0.55;66.71
49473;BME280;67434;50.956;6.918;2023-04-04T04:48:39;102348.50;;;-0.66;68.12
49473;BME280;67434;50.956;6.918;2023-04-04T04:51:25;102346.69;;;-0.75;67.95
49473;BME280;67434;50.956;6.918;2023-04-04T04:54:10;102351.72;;;-0.82;68.44
49473;BME280;67434;50.956;6.918;2023-04-04T04:56:57;102348.38;;;-0.74;68.42
49473;BME280;67434;50.956;6.918;2023-04-04T04:59:45;102341.94;;;-0.81;68.34
49473;BME280;67434;50.956;6.918;2023-04-04T05:02:31;102344.47;;;-0.89;68.81
49473;BME280;67434;50.956;6.918;2023-04-04T05:05:16;102344.22;;;-0.96;69.81
49473;BME280;67434;50.956;6.918;2023-04-04T05:08:03;102355.81;;;-0.97;69.70
49473;BME280;67434;50.956;6.918;2023-04-04T05:10:49;102346.47;;;-1.01;69.75
49473;BME280;67434;50.956;6.918;2023-04-04T05:13:35;102338.63;;;-1.03;69.95
49473;BME280;67434;50.956;6.918;2023-04-04T05:16:21;102347.56;;;-0.94;69.21
49473;BME280;67434;50.956;6.918;2023-04-04T05:19:07;102344.75;;;-0.73;68.22
49473;BME280;67434;50.956;6.918;2023-04-04T05:21:52;102356.19;;;-0.73;67.99
49473;BME280;67434;50.956;6.918;2023-04-04T05:24:38;102351.44;;;-0.79;68.66
49473;BME280;67434;50.956;6.918;2023-04-04T05:27:24;102357.44;;;-0.77;68.40
49473;BME280;67434;50.956;6.918;2023-04-04T05:30:10;102352.28;;;-0.69;68.01
49473;BME280;67434;50.956;6.918;2023-04-04T05:32:56;102355.38;;;-0.73;68.65
49473;BME280;67434;50.956;6.918;2023-04-04T05:35:42;102361.34;;;-0.61;68.30
49473;BME280;67434;50.956;6.918;2023-04-04T05:38:28;102362.03;;;-0.59;68.11
49473;BME280;67434;50.956;6.918;2023-04-04T05:41:13;102355.56;;;-0.47;68.25
49473;BME280;67434;50.956;6.918;2023-04-04T05:43:59;102359.03;;;-0.37;67.71
49473;BME280;67434;50.956;6.918;2023-04-04T05:46:45;102367.13;;;-0.29;67.48
49473;BME280;67434;50.956;6.918;2023-04-04T05:49:31;102363.31;;;-0.26;67.05
49473;BME280;67434;50.956;6.918;2023-04-04T05:52:17;102369.03;;;-0.21;67.15
49473;BME280;67434;50.956;6.918;2023-04-04T05:55:02;102367.75;;;-0.17;67.15
49473;BME280;67434;50.956;6.918;2023-04-04T05:57:49;102375.38;;;-0.05;66.81
49473;BME280;67434;50.956;6.918;2023-04-04T06:00:35;102374.81;;;0.02;66.64
49473;BME280;67434;50.956;6.918;2023-04-04T06:03:21;102371.28;;;0.11;66.34
49473;BME280;67434;50.956;6.918;2023-04-04T06:06:10;102375.94;;;0.26;65.76
49473;BME280;67434;50.956;6.918;2023-04-04T06:08:56;102378.53;;;0.36;64.91
49473;BME280;67434;50.956;6.918;2023-04-04T06:11:41;102384.25;;;0.41;64.77
49473;BME280;67434;50.956;6.918;2023-04-04T06:14:27;102388.38;;;0.53;64.44
49473;BME280;67434;50.956;6.918;2023-04-04T06:17:13;102390.94;;;0.63;64.04
49473;BME280;67434;50.956;6.918;2023-04-04T06:19:58;102388.81;;;0.67;63.44
49473;BME280;67434;50.956;6.918;2023-04-04T06:22:44;102396.19;;;0.73;62.86
49473;BME280;67434;50.956;6.918;2023-04-04T06:25:30;102392.50;;;0.83;61.91
49473;BME280;67434;50.956;6.918;2023-04-04T06:28:16;102389.91;;;0.91;61.66
49473;BME280;67434;50.956;6.918;2023-04-04T06:31:04;102390.50;;;1.03;61.12
49473;BME280;67434;50.956;6.918;2023-04-04T06:33:51;102387.38;;;1.08;60.66
49473;BME280;67434;50.956;6.918;2023-04-04T06:36:37;102389.50;;;1.22;59.80
49473;BME280;67434;50.956;6.918;2023-04-04T06:39:23;102392.06;;;1.32;59.96
49473;BME280;67434;50.956;6.918;2023-04-04T06:42:08;102395.94;;;1.37;59.89
49473;BME280;67434;50.956;6.918;2023-04-04T06:44:54;102395.91;;;1.55;59.00
49473;BME280;67434;50.956;6.918;2023-04-04T06:47:40;102397.78;;;1.63;58.79
49473;BME280;67434;50.956;6.918;2023-04-04T06:50:29;102407.81;;;1.69;58.50
49473;BME280;67434;50.956;6.918;2023-04-04T06:53:17;102401.50;;;1.78;58.27
49473;BME280;67434;50.956;6.918;2023-04-04T06:56:03;102404.47;;;2.01;58.11
49473;BME280;67434;50.956;6.918;2023-04-04T06:58:49;102404.00;;;2.05;57.27
49473;BME280;67434;50.956;6.918;2023-04-04T07:01:35;102414.22;;;2.18;57.25
49473;BME280;67434;50.956;6.918;2023-04-04T07:04:21;102408.09;;;2.26;56.05
49473;BME280;67434;50.956;6.918;2023-04-04T07:07:06;102414.94;;;2.28;55.78
49473;BME280;67434;50.956;6.918;2023-04-04T07:09:52;102415.88;;;2.19;56.18
49473;BME280;67434;50.956;6.918;2023-04-04T07:12:38;102418.44;;;2.29;55.28
49473;BME280;67434;50.956;6.918;2023-04-04T07:15:23;102419.31;;;2.37;54.30
49473;BME280;67434;50.956;6.918;2023-04-04T07:18:09;102422.47;;;2.41;54.26
49473;BME280;67434;50.956;6.918;2023-04-04T07:20:54;102425.50;;;2.54;54.16
49473;BME280;67434;50.956;6.918;2023-04-04T07:23:40;102416.06;;;2.68;53.37
49473;BME280;67434;50.956;6.918;2023-04-04T07:26:26;102424.09;;;2.76;53.22
49473;BME280;67434;50.956;6.918;2023-04-04T07:29:12;102418.56;;;2.77;52.76
49473;BME280;67434;50.956;6.918;2023-04-04T07:31:58;102414.56;;;2.90;52.58
49473;BME280;67434;50.956;6.918;2023-04-04T07:34:43;102424.78;;;3.02;51.42
49473;BME280;67434;50.956;6.918;2023-04-04T07:37:30;102430.31;;;3.09;51.45
49473;BME280;67434;50.956;6.918;2023-04-04T07:40:15;102426.47;;;3.20;51.32
49473;BME280;67434;50.956;6.918;2023-04-04T07:43:01;102428.63;;;3.32;50.00
49473;BME280;67434;50.956;6.918;2023-04-04T07:45:47;102419.78;;;3.32;49.85
49473;BME280;67434;50.956;6.918;2023-04-04T07:48:32;102423.13;;;3.42;49.33
49473;BME280;67434;50.956;6.918;2023-04-04T07:51:18;102428.13;;;3.45;49.54
49473;BME280;67434;50.956;6.918;2023-04-04T07:54:12;102414.25;;;3.50;49.31
49473;BME280;67434;50.956;6.918;2023-04-04T07:56:58;102412.91;;;3.54;48.31
49473;BME280;67434;50.956;6.918;2023-04-04T07:59:43;102413.41;;;3.57;48.75
49473;BME280;67434;50.956;6.918;2023-04-04T08:02:29;102403.03;;;3.62;48.49
49473;BME280;67434;50.956;6.918;2023-04-04T08:05:14;102407.34;;;3.71;48.47
49473;BME280;67434;50.956;6.918;2023-04-04T08:08:00;102397.66;;;3.70;47.54
49473;BME280;67434;50.956;6.918;2023-04-04T08:10:46;102393.97;;;3.71;48.00
49473;BME280;67434;50.956;6.918;2023-04-04T08:13:33;102401.97;;;3.88;48.28
49473;BME280;67434;50.956;6.918;2023-04-04T08:16:19;102397.91;;;4.00;47.25
49473;BME280;67434;50.956;6.918;2023-04-04T08:19:05;102398.88;;;4.15;46.04
49473;BME280;67434;50.956;6.918;2023-04-04T08:21:52;102398.34;;;4.20;46.27
49473;BME280;67434;50.956;6.918;2023-04-04T08:24:38;102390.50;;;4.18;44.99
49473;BME280;67434;50.956;6.918;2023-04-04T08:27:23;102382.78;;;4.23;46.06
49473;BME280;67434;50.956;6.918;2023-04-04T08:30:09;102390.09;;;4.29;46.29
49473;BME280;67434;50.956;6.918;2023-04-04T08:32:55;102383.38;;;4.33;44.48
49473;BME280;67434;50.956;6.918;2023-04-04T08:35:40;102383.34;;;4.42;45.58
49473;BME280;67434;50.956;6.918;2023-04-04T08:38:26;102380.75;;;4.56;45.81
49473;BME280;67434;50.956;6.918;2023-04-04T08:41:12;102382.25;;;4.59;44.85
49473;BME280;67434;50.956;6.918;2023-04-04T08:44:02;102374.44;;;4.72;44.75
49473;BME280;67434;50.956;6.918;2023-04-04T08:46:50;102376.47;;;4.70;44.58
49473;BME280;67434;50.956;6.918;2023-04-04T08:49:42;102375.41;;;4.79;44.31
49473;BME280;67434;50.956;6.918;2023-04-04T08:52:28;102372.88;;;4.86;44.29
49473;BME280;67434;50.956;6.918;2023-04-04T08:55:14;102375.31;;;4.95;44.35
49473;BME280;67434;50.956;6.918;2023-04-04T08:58:01;102367.94;;;5.12;43.83
49473;BME280;67434;50.956;6.918;2023-04-04T09:00:47;102370.44;;;5.14;44.34
49473;BME280;67434;50.956;6.918;2023-04-04T09:03:35;102376.47;;;5.16;43.48
49473;BME280;67434;50.956;6.918;2023-04-04T09:06:22;102384.81;;;5.21;44.10
49473;BME280;67434;50.956;6.918;2023-04-04T09:09:08;102379.78;;;5.18;43.37
49473;BME280;67434;50.956;6.918;2023-04-04T09:11:55;102377.94;;;5.18;43.48
49473;BME280;67434;50.956;6.918;2023-04-04T09:14:42;102383.06;;;5.28;43.40
49473;BME280;67434;50.956;6.918;2023-04-04T09:17:29;102387.81;;;5.41;43.61
49473;BME280;67434;50.956;6.918;2023-04-04T09:23:20;102386.81;;;5.19;43.31
49473;BME280;67434;50.956;6.918;2023-04-04T09:26:07;102385.03;;;5.11;42.86
49473;BME280;67434;50.956;6.918;2023-04-04T09:28:54;102379.13;;;5.16;43.09
49473;BME280;67434;50.956;6.918;2023-04-04T09:31:40;102369.84;;;5.26;43.50
49473;BME280;67434;50.956;6.918;2023-04-04T09:34:31;102373.19;;;5.43;42.92
49473;BME280;67434;50.956;6.918;2023-04-04T09:37:17;102373.38;;;5.56;42.88
49473;BME280;67434;50.956;6.918;2023-04-04T09:40:03;102369.34;;;5.60;42.05
49473;BME280;67434;50.956;6.918;2023-04-04T09:42:49;102376.81;;;5.50;43.18
49473;BME280;67434;50.956;6.918;2023-04-04T09:45:37;102367.84;;;5.43;42.82
49473;BME280;67434;50.956;6.918;2023-04-04T09:48:30;102372.38;;;5.57;42.71
49473;BME280;67434;50.956;6.918;2023-04-04T09:51:16;102370.53;;;5.73;42.28
49473;BME280;67434;50.956;6.918;2023-04-04T09:54:02;102370.00;;;5.92;42.02
49473;BME280;67434;50.956;6.918;2023-04-04T09:56:50;102368.66;;;5.96;41.32
49473;BME280;67434;50.956;6.918;2023-04-04T09:59:36;102366.50;;;6.06;41.36
49473;BME280;67434;50.956;6.918;2023-04-04T10:02:22;102358.34;;;6.14;41.36
49473;BME280;67434;50.956;6.918;2023-04-04T10:05:08;102364.84;;;6.05;41.03
49473;BME280;67434;50.956;6.918;2023-04-04T10:07:56;102352.31;;;6.12;41.51
49473;BME280;67434;50.956;6.918;2023-04-04T10:10:49;102358.66;;;6.26;41.18
49473;BME280;67434;50.956;6.918;2023-04-04T10:13:36;102355.53;;;6.22;40.82
49473;BME280;67434;50.956;6.918;2023-04-04T10:16:25;102348.19;;;5.95;41.22
49473;BME280;67434;50.956;6.918;2023-04-04T10:19:11;102343.81;;;5.79;41.38
49473;BME280;67434;50.956;6.918;2023-04-04T10:21:58;102344.66;;;5.94;41.87
49473;BME280;67434;50.956;6.918;2023-04-04T10:24:46;102344.66;;;5.94;41.68
49473;BME280;67434;50.956;6.918;2023-04-04T10:27:32;102336.25;;;5.98;41.79
49473;BME280;67434;50.956;6.918;2023-04-04T10:30:18;102334.72;;;6.10;42.04
49473;BME280;67434;50.956;6.918;2023-04-04T10:33:05;102335.25;;;6.20;42.29
49473;BME280;67434;50.956;6.918;2023-04-04T10:35:53;102328.41;;;6.32;41.40
49473;BME280;67434;50.956;6.918;2023-04-04T10:38:44;102319.03;;;6.28;41.82
49473;BME280;67434;50.956;6.918;2023-04-04T10:41:34;102324.00;;;6.10;42.03
49473;BME280;67434;50.956;6.918;2023-04-04T10:44:37;102316.28;;;6.21;41.33
49473;BME280;67434;50.956;6.918;2023-04-04T10:47:23;102309.94;;;6.29;41.91
49473;BME280;67434;50.956;6.918;2023-04-04T10:50:11;102302.38;;;6.54;41.58
49473;BME280;67434;50.956;6.918;2023-04-04T10:52:57;102299.09;;;6.58;40.34
49473;BME280;67434;50.956;6.918;2023-04-04T10:55:45;102296.03;;;6.62;40.51
49473;BME280;67434;50.956;6.918;2023-04-04T10:58:31;102298.91;;;6.81;40.50
49473;BME280;67434;50.956;6.918;2023-04-04T11:01:16;102291.34;;;6.92;39.85
49473;BME280;67434;50.956;6.918;2023-04-04T11:04:18;102301.06;;;6.93;39.08
49473;BME280;67434;50.956;6.918;2023-04-04T11:07:12;102294.50;;;6.74;40.04
49473;BME280;67434;50.956;6.918;2023-04-04T11:10:00;102298.66;;;6.76;39.55
49473;BME280;67434;50.956;6.918;2023-04-04T11:12:45;102283.13;;;6.72;39.80
49473;BME280;67434;50.956;6.918;2023-04-04T11:15:59;102279.41;;;6.73;39.77
49473;BME280;67434;50.956;6.918;2023-04-04T11:18:45;102275.56;;;6.82;40.19
49473;BME280;67434;50.956;6.918;2023-04-04T11:21:31;102263.72;;;7.04;39.82
49473;BME280;67434;50.956;6.918;2023-04-04T11:24:17;102267.16;;;7.19;39.10
49473;BME280;67434;50.956;6.918;2023-04-04T11:27:05;102258.16;;;7.40;38.06
49473;BME280;67434;50.956;6.918;2023-04-04T11:29:52;102254.22;;;7.36;38.38
49473;BME280;67434;50.956;6.918;2023-04-04T11:32:41;102250.97;;;7.47;37.79
49473;BME280;67434;50.956;6.918;2023-04-04T11:35:30;102257.84;;;7.57;37.51
49473;BME280;67434;50.956;6.918;2023-04-04T11:38:15;102261.41;;;7.64;36.31
49473;BME280;67434;50.956;6.918;2023-04-04T11:41:04;102255.19;;;7.63;36.62
49473;BME280;67434;50.956;6.918;2023-04-04T11:43:51;102251.94;;;7.40;36.32
49473;BME280;67434;50.956;6.918;2023-04-04T11:46:37;102248.59;;;7.31;36.46
49473;BME280;67434;50.956;6.918;2023-04-04T11:49:27;102249.53;;;7.51;37.05
49473;BME280;67434;50.956;6.918;2023-04-04T11:52:17;102241.75;;;7.70;36.69
49473;BME280;67434;50.956;6.918;2023-04-04T11:55:17;102236.63;;;7.81;35.44
49473;BME280;67434;50.956;6.918;2023-04-04T11:58:11;102235.19;;;7.86;35.48
49473;BME280;67434;50.956;6.918;2023-04-04T12:00:57;102233.50;;;7.78;35.13
49473;BME280;67434;50.956;6.918;2023-04-04T12:03:44;102226.09;;;7.93;35.12
49473;BME280;67434;50.956;6.918;2023-04-04T12:06:30;102227.16;;;8.05;35.61
49473;BME280;67434;50.956;6.918;2023-04-04T12:09:17;102224.53;;;8.19;34.75
49473;BME280;67434;50.956;6.918;2023-04-04T12:12:05;102217.03;;;8.07;34.49
49473;BME280;67434;50.956;6.918;2023-04-04T12:14:52;102205.41;;;8.00;34.38
49473;BME280;67434;50.956;6.918;2023-04-04T12:17:39;102203.09;;;7.91;34.34
49473;BME280;67434;50.956;6.918;2023-04-04T12:20:25;102204.16;;;7.96;34.47
49473;BME280;67434;50.956;6.918;2023-04-04T12:23:11;102201.28;;;8.11;33.70
49473;BME280;67434;50.956;6.918;2023-04-04T12:25:57;102201.28;;;8.18;33.11
49473;BME280;67434;50.956;6.918;2023-04-04T12:28:43;102200.88;;;8.14;33.09
49473;BME280;67434;50.956;6.918;2023-04-04T12:31:31;102203.34;;;8.09;33.74
49473;BME280;67434;50.956;6.918;2023-04-04T12:34:20;102183.88;;;8.00;33.60
49473;BME280;67434;50.956;6.918;2023-04-04T12:37:08;102185.53;;;8.08;34.23
49473;BME280;67434;50.956;6.918;2023-04-04T12:39:54;102182.91;;;8.41;33.86
49473;BME280;67434;50.956;6.918;2023-04-04T12:42:41;102188.09;;;8.49;34.01
49473;BME280;67434;50.956;6.918;2023-04-04T12:45:27;102189.72;;;8.76;33.68
49473;BME280;67434;50.956;6.918;2023-04-04T12:48:14;102187.47;;;8.67;33.16
49473;BME280;67434;50.956;6.918;2023-04-04T12:51:03;102172.72;;;8.76;33.82
49473;BME280;67434;50.956;6.918;2023-04-04T12:53:52;102166.88;;;9.05;32.28
49473;BME280;67434;50.956;6.918;2023-04-04T12:56:39;102157.66;;;9.26;31.92
49473;BME280;67434;50.956;6.918;2023-04-04T12:59:29;102151.00;;;9.35;31.45
49473;BME280;67434;50.956;6.918;2023-04-04T13:02:17;102149.16;;;9.74;31.11
49473;BME280;67434;50.956;6.918;2023-04-04T13:05:04;102144.38;;;10.08;30.15
49473;BME280;67434;50.956;6.918;2023-04-04T13:08:04;102133.19;;;10.29;29.55
49473;BME280;67434;50.956;6.918;2023-04-04T13:11:03;102134.88;;;10.73;29.52
49473;BME280;67434;50.956;6.918;2023-04-04T13:14:01;102125.47;;;10.57;29.02
49473;BME280;67434;50.956;6.918;2023-04-04T13:17:00;102119.06;;;10.52;28.68
49473;BME280;67434;50.956;6.918;2023-04-04T13:19:47;102115.56;;;10.70;29.01
49473;BME280;67434;50.956;6.918;2023-04-04T13:22:36;102110.13;;;10.51;28.62
49473;BME280;67434;50.956;6.918;2023-04-04T13:25:22;102106.88;;;10.18;29.08
49473;BME280;67434;50.956;6.918;2023-04-04T13:28:08;102106.72;;;10.38;29.07
49473;BME280;67434;50.956;6.918;2023-04-04T13:31:00;102101.72;;;10.41;28.83
49473;BME280;67434;50.956;6.918;2023-04-04T13:33:46;102110.13;;;10.51;29.61
49473;BME280;67434;50.956;6.918;2023-04-04T13:36:32;102094.31;;;10.30;28.19
49473;BME280;67434;50.956;6.918;2023-04-04T13:39:17;102093.69;;;10.28;29.18
49473;BME280;67434;50.956;6.918;2023-04-04T13:42:03;102097.22;;;10.53;28.57
49473;BME280;67434;50.956;6.918;2023-04-04T13:44:49;102085.81;;;10.51;28.55
49473;BME280;67434;50.956;6.918;2023-04-04T13:47:36;102096.91;;;10.43;29.57
49473;BME280;67434;50.956;6.918;2023-04-04T13:50:22;102093.16;;;10.44;28.67
49473;BME280;67434;50.956;6.918;2023-04-04T13:53:07;102089.72;;;10.30;29.50
49473;BME280;67434;50.956;6.918;2023-04-04T13:55:54;102095.81;;;9.94;29.25
49473;BME280;67434;50.956;6.918;2023-04-04T13:58:41;102071.44;;;9.45;30.23
49473;BME280;67434;50.956;6.918;2023-04-04T14:01:28;102079.72;;;9.50;30.62
49473;BME280;67434;50.956;6.918;2023-04-04T14:04:14;102068.66;;;9.58;31.31
49473;BME280;67434;50.956;6.918;2023-04-04T14:06:59;102066.94;;;9.63;30.61
49473;BME280;67434;50.956;6.918;2023-04-04T14:09:45;102066.38;;;9.86;30.50
49473;BME280;67434;50.956;6.918;2023-04-04T14:12:30;102054.16;;;10.09;30.56
49473;BME280;67434;50.956;6.918;2023-04-04T14:15:16;102051.91;;;10.30;30.81
49473;BME280;67434;50.956;6.918;2023-04-04T14:18:02;102039.63;;;10.53;29.74
49473;BME280;67434;50.956;6.918;2023-04-04T14:20:47;102043.59;;;10.69;29.74
49473;BME280;67434;50.956;6.918;2023-04-04T14:23:33;102041.81;;;10.81;29.28
49473;BME280;67434;50.956;6.918;2023-04-04T14:26:19;102032.22;;;10.96;29.43
49473;BME280;67434;50.956;6.918;2023-04-04T14:29:04;102036.22;;;10.57;28.79
49473;BME280;67434;50.956;6.918;2023-04-04T14:31:50;102021.34;;;10.30;28.92
49473;BME280;67434;50.956;6.918;2023-04-04T14:34:36;102026.81;;;10.23;28.41
49473;BME280;67434;50.956;6.918;2023-04-04T14:37:22;102014.38;;;10.16;29.02
49473;BME280;67434;50.956;6.918;2023-04-04T14:40:07;102016.22;;;10.40;29.44
49473;BME280;67434;50.956;6.918;2023-04-04T14:42:53;102009.19;;;10.76;28.97
49473;BME280;67434;50.956;6.918;2023-04-04T14:45:39;102016.13;;;11.02;27.94